Time;durP1;ratioP1;P1;durP2;ratioP2;P2;SDS_P1;SDS_P2;PMS_P1;PMS_P2;Temp;Humidity;BMP_temperature;BMP_pressure;BME280_temperature;BME280_humidity;BME280_pressure;Samples;Min_cycle;Max_cycle;Signal;HPM_P1;HPM_P2
2024/01/31 00:01:55;;;;;;;63.67;32.42;;;6.80;99.90;;;;;;4972676;28;20096;-75
2024/01/31 00:04:22;;;;;;;72.95;34.15;;;6.80;99.90;;;;;;4965946;28;20038;-75
2024/01/31 00:06:50;;;;;;;72.63;37.20;;;6.70;99.90;;;;;;4954980;28;20081;-74
2024/01/31 00:09:16;;;;;;;72.47;36.40;;;6.70;99.90;;;;;;4971501;28;20049;-77
2024/01/31 00:11:44;;;;;;;61.17;31.75;;;6.70;99.90;;;;;;4971719;28;20050;-76
2024/01/31 00:14:13;;;;;;;28.15;16.33;;;6.60;99.90;;;;;;4950453;28;20585;-77
2024/01/31 00:16:40;;;;;;;34.10;17.98;;;6.50;99.90;;;;;;4942292;28;20050;-75
2024/01/31 00:19:06;;;;;;;42.53;20.80;;;6.40;99.90;;;;;;4954916;28;20502;-77
2024/01/31 00:21:33;;;;;;;46.05;22.48;;;6.40;99.90;;;;;;4973140;28;20042;-74
2024/01/31 00:24:01;;;;;;;45.85;22.50;;;6.40;99.90;;;;;;4965526;28;20065;-75
2024/01/31 00:26:27;;;;;;;40.97;20.65;;;6.40;99.90;;;;;;4955791;28;20649;-76
2024/01/31 00:28:54;;;;;;;36.10;18.08;;;6.40;99.90;;;;;;4961332;28;20048;-77
2024/01/31 00:31:21;;;;;;;48.22;22.63;;;6.40;99.90;;;;;;4976035;28;20529;-75
2024/01/31 00:33:48;;;;;;;54.30;23.92;;;6.40;99.90;;;;;;4970374;28;20119;-76
2024/01/31 00:36:15;;;;;;;34.47;18.45;;;6.40;99.90;;;;;;4969528;28;20041;-74
2024/01/31 00:38:42;;;;;;;43.50;21.38;;;6.40;99.90;;;;;;4967227;28;20712;-76
2024/01/31 00:41:08;;;;;;;36.17;16.77;;;6.30;99.90;;;;;;4970467;28;20604;-75
2024/01/31 00:43:35;;;;;;;30.35;14.90;;;6.20;99.90;;;;;;4982961;28;20054;-75
2024/01/31 00:46:05;;;;;;;27.77;12.93;;;6.20;99.90;;;;;;4949764;28;20041;-76
2024/01/31 00:48:32;;;;;;;29.05;15.45;;;6.10;99.90;;;;;;4968747;28;20038;-75
2024/01/31 00:50:59;;;;;;;37.53;18.10;;;6.10;99.90;;;;;;4954749;28;20736;-76
2024/01/31 00:53:26;;;;;;;37.95;19.98;;;6.10;99.90;;;;;;4957478;28;20112;-73
2024/01/31 00:55:53;;;;;;;31.73;16.67;;;6.10;99.90;;;;;;4971517;28;20605;-74
2024/01/31 00:58:20;;;;;;;35.78;17.15;;;6.10;99.90;;;;;;4973655;28;21358;-74
2024/01/31 01:00:47;;;;;;;34.35;17.73;;;6.10;99.90;;;;;;4984720;28;20143;-75
2024/01/31 01:03:13;;;;;;;38.35;18.15;;;6.20;99.90;;;;;;4971032;28;23435;-76
2024/01/31 01:05:40;;;;;;;33.83;17.98;;;6.10;99.90;;;;;;4985185;28;20325;-76
2024/01/31 01:08:07;;;;;;;38.08;17.15;;;6.10;99.90;;;;;;4971651;28;20092;-76
2024/01/31 01:10:34;;;;;;;36.97;17.38;;;6.10;99.90;;;;;;4952412;28;20038;-76
2024/01/31 01:13:01;;;;;;;36.67;17.20;;;6.10;99.90;;;;;;4969470;28;20054;-77
2024/01/31 01:15:28;;;;;;;31.63;16.63;;;6.10;99.90;;;;;;4954282;28;20133;-75
2024/01/31 01:17:55;;;;;;;33.42;17.40;;;6.10;99.90;;;;;;4982530;28;20058;-76
2024/01/31 01:20:21;;;;;;;49.65;19.42;;;6.10;99.90;;;;;;4986466;28;20033;-74
2024/01/31 01:22:48;;;;;;;41.90;18.08;;;6.10;99.90;;;;;;4973203;28;20050;-75
2024/01/31 01:25:16;;;;;;;41.83;19.13;;;6.10;99.90;;;;;;4981028;28;20057;-75
2024/01/31 01:27:50;;;;;;;35.20;17.00;;;6.10;99.90;;;;;;4980754;28;20038;-76
2024/01/31 01:30:18;;;;;;;39.13;18.55;;;6.10;99.90;;;;;;4982926;28;20053;-76
2024/01/31 01:32:45;;;;;;;41.70;18.67;;;6.10;99.90;;;;;;4973445;28;20045;-76
2024/01/31 01:35:13;;;;;;;34.95;18.33;;;6.10;99.90;;;;;;4966235;28;20045;-75
2024/01/31 01:37:40;;;;;;;35.08;15.80;;;6.10;99.90;;;;;;4985292;28;20483;-75
2024/01/31 01:40:09;;;;;;;25.88;14.15;;;6.00;99.90;;;;;;4966809;28;20038;-75
2024/01/31 01:42:39;;;;;;;26.27;14.68;;;6.00;99.90;;;;;;4985475;28;20034;-75
2024/01/31 01:45:07;;;;;;;30.17;15.13;;;6.00;99.90;;;;;;4985200;28;20417;-77
2024/01/31 01:47:35;;;;;;;28.20;15.25;;;6.10;99.90;;;;;;4983811;28;20046;-75
2024/01/31 01:50:03;;;;;;;32.88;14.25;;;6.00;99.90;;;;;;4970968;28;20042;-75
2024/01/31 01:52:31;;;;;;;26.83;13.75;;;6.00;99.90;;;;;;4973870;28;20053;-74
2024/01/31 01:55:02;;;;;;;27.40;13.80;;;6.00;99.90;;;;;;4968796;28;20593;-76
2024/01/31 01:57:31;;;;;;;27.33;13.88;;;5.90;99.90;;;;;;4947316;28;20050;-74
2024/01/31 01:59:59;;;;;;;29.48;15.45;;;5.90;99.90;;;;;;4987764;28;20406;-75
2024/01/31 02:02:27;;;;;;;31.20;15.65;;;5.90;99.90;;;;;;4980392;28;20053;-74
2024/01/31 02:04:54;;;;;;;32.47;15.35;;;6.00;99.90;;;;;;4981637;28;20034;-76
2024/01/31 02:07:26;;;;;;;32.78;15.20;;;6.00;99.90;;;;;;4982671;28;20030;-75
2024/01/31 02:09:54;;;;;;;37.60;16.55;;;6.00;99.90;;;;;;4982758;28;20116;-76
2024/01/31 02:12:20;;;;;;;35.38;16.40;;;6.00;99.90;;;;;;4944061;28;20147;-76
2024/01/31 02:14:47;;;;;;;36.50;16.23;;;6.00;99.90;;;;;;4954138;28;20054;-76
2024/01/31 02:17:14;;;;;;;34.38;15.45;;;5.90;99.90;;;;;;4968169;28;20668;-76
2024/01/31 02:19:41;;;;;;;23.00;13.10;;;5.90;99.90;;;;;;4983809;28;20076;-76
2024/01/31 02:22:14;;;;;;;28.95;11.60;;;5.90;99.90;;;;;;4977083;28;20038;-76
2024/01/31 02:24:41;;;;;;;22.65;9.75;;;5.90;99.90;;;;;;4982112;28;20517;-75
2024/01/31 02:27:07;;;;;;;18.25;9.38;;;5.80;99.90;;;;;;4982740;28;20042;-74
2024/01/31 02:29:37;;;;;;;11.50;8.35;;;5.70;99.90;;;;;;4971613;28;20395;-74
2024/01/31 02:32:05;;;;;;;10.15;6.75;;;5.60;99.90;;;;;;4964209;28;20037;-75
2024/01/31 02:34:32;;;;;;;13.05;6.45;;;5.60;99.90;;;;;;4986798;28;20050;-74
2024/01/31 02:36:59;;;;;;;9.88;5.53;;;5.50;99.90;;;;;;4966531;28;20043;-76
2024/01/31 02:39:26;;;;;;;9.32;5.88;;;5.40;99.90;;;;;;4964848;28;20136;-74
2024/01/31 02:41:53;;;;;;;9.52;5.10;;;5.40;99.90;;;;;;4969910;28;20574;-75
2024/01/31 02:44:21;;;;;;;15.27;7.30;;;5.40;99.90;;;;;;4967004;28;20046;-76
2024/01/31 02:46:48;;;;;;;12.40;6.30;;;5.40;99.90;;;;;;4972912;28;20046;-75
2024/01/31 02:49:15;;;;;;;12.63;6.35;;;5.40;99.90;;;;;;4967575;28;20050;-76
2024/01/31 02:51:42;;;;;;;11.25;7.18;;;5.40;99.90;;;;;;4980848;28;20050;-76
2024/01/31 02:54:08;;;;;;;16.65;7.50;;;5.40;99.90;;;;;;4984344;28;20046;-76
2024/01/31 02:56:35;;;;;;;11.05;7.07;;;5.40;99.90;;;;;;4967203;28;20057;-75
2024/01/31 02:59:02;;;;;;;12.15;7.38;;;5.40;99.90;;;;;;4988520;28;20596;-76
2024/01/31 03:01:29;;;;;;;12.93;7.18;;;5.30;99.90;;;;;;4985671;28;20053;-75
2024/01/31 03:03:55;;;;;;;15.07;8.63;;;5.30;99.90;;;;;;4982957;28;20038;-75
2024/01/31 03:06:22;;;;;;;15.77;9.10;;;5.30;99.90;;;;;;4952268;28;20043;-74
2024/01/31 03:08:49;;;;;;;17.10;9.38;;;5.20;99.90;;;;;;4986460;28;20041;-74
2024/01/31 03:11:16;;;;;;;23.77;10.05;;;5.20;99.90;;;;;;4955903;28;20073;-76
2024/01/31 03:13:42;;;;;;;15.75;9.18;;;5.20;99.90;;;;;;4964129;28;20050;-75
2024/01/31 03:16:09;;;;;;;17.42;9.98;;;5.20;99.90;;;;;;4964460;28;20046;-75
2024/01/31 03:18:36;;;;;;;15.52;10.05;;;5.20;99.90;;;;;;4988145;28;20533;-77
2024/01/31 03:21:03;;;;;;;22.55;9.15;;;5.30;99.90;;;;;;4971328;28;20030;-75
2024/01/31 03:23:30;;;;;;;21.35;11.43;;;5.20;99.90;;;;;;4970438;28;20497;-75
2024/01/31 03:25:57;;;;;;;21.88;8.95;;;5.10;99.90;;;;;;4985512;28;20049;-76
2024/01/31 03:28:23;;;;;;;16.08;8.60;;;5.10;99.90;;;;;;4973192;28;20132;-75
2024/01/31 03:30:52;;;;;;;13.38;8.15;;;5.10;99.90;;;;;;4989316;28;20052;-76
2024/01/31 03:33:19;;;;;;;18.55;7.65;;;5.00;99.90;;;;;;4960118;28;20045;-75
2024/01/31 03:35:46;;;;;;;12.95;7.30;;;5.10;99.90;;;;;;4977654;28;20068;-76
2024/01/31 03:38:13;;;;;;;17.98;8.38;;;5.10;99.90;;;;;;4988871;28;20038;-75
2024/01/31 03:40:39;;;;;;;14.90;7.07;;;5.10;99.90;;;;;;4969862;28;20588;-75
2024/01/31 03:43:06;;;;;;;12.07;6.97;;;5.00;99.90;;;;;;4971000;28;20049;-76
2024/01/31 03:45:33;;;;;;;7.93;6.18;;;5.10;99.90;;;;;;4966044;28;20089;-74
2024/01/31 03:48:00;;;;;;;13.25;6.82;;;5.10;99.90;;;;;;4968598;28;20046;-75
2024/01/31 03:50:28;;;;;;;8.93;7.00;;;5.00;99.90;;;;;;4990231;28;20046;-75
2024/01/31 03:52:55;;;;;;;13.75;6.47;;;5.10;99.90;;;;;;4958008;28;20056;-75
2024/01/31 03:55:22;;;;;;;11.27;6.70;;;5.10;99.90;;;;;;4967729;28;20825;-74
2024/01/31 03:57:48;;;;;;;13.15;7.20;;;5.00;99.90;;;;;;4968486;28;20068;-77
2024/01/31 04:00:16;;;;;;;14.52;7.53;;;4.90;99.90;;;;;;4957029;28;20115;-75
2024/01/31 04:02:42;;;;;;;11.05;6.18;;;4.90;99.90;;;;;;4989732;28;20057;-75
2024/01/31 04:05:10;;;;;;;9.18;6.20;;;5.00;99.90;;;;;;4970377;28;20050;-75
2024/01/31 04:07:37;;;;;;;9.75;5.90;;;5.00;99.90;;;;;;4968524;28;20425;-74
2024/01/31 04:10:07;;;;;;;9.82;6.38;;;5.00;99.90;;;;;;4992329;28;20071;-76
2024/01/31 04:12:33;;;;;;;10.80;6.32;;;5.00;99.90;;;;;;4971581;28;20045;-76
2024/01/31 04:15:01;;;;;;;13.52;6.38;;;5.00;99.90;;;;;;4970835;28;20068;-75
2024/01/31 04:17:27;;;;;;;11.32;6.07;;;5.00;99.90;;;;;;4956925;28;20097;-75
2024/01/31 04:19:54;;;;;;;9.45;6.10;;;5.00;99.90;;;;;;4953871;28;20053;-76
2024/01/31 04:22:21;;;;;;;9.35;6.00;;;5.00;99.90;;;;;;4975459;28;20058;-76
2024/01/31 04:24:48;;;;;;;7.70;6.10;;;5.00;99.90;;;;;;4951672;28;20165;-76
2024/01/31 04:27:15;;;;;;;6.25;5.65;;;5.00;99.90;;;;;;4968835;28;20042;-76
2024/01/31 04:29:42;;;;;;;8.55;5.85;;;5.00;99.90;;;;;;4968820;28;20041;-76
2024/01/31 04:32:08;;;;;;;13.60;6.65;;;5.00;99.90;;;;;;4975266;28;20042;-75
2024/01/31 04:34:39;;;;;;;6.45;4.57;;;5.00;99.90;;;;;;4986234;28;20052;-76
2024/01/31 04:37:06;;;;;;;6.38;5.68;;;4.90;99.90;;;;;;4974528;28;20122;-75
2024/01/31 04:39:34;;;;;;;11.50;5.90;;;4.80;99.90;;;;;;4970188;28;20045;-75
2024/01/31 04:42:01;;;;;;;6.40;4.60;;;4.90;99.90;;;;;;4971623;28;20116;-76
2024/01/31 04:44:28;;;;;;;7.47;5.05;;;4.90;99.90;;;;;;4986616;28;20133;-76
2024/01/31 04:46:55;;;;;;;7.22;4.80;;;4.90;99.90;;;;;;4979460;28;20030;-74
2024/01/31 04:49:21;;;;;;;6.65;5.22;;;4.90;99.90;;;;;;4979529;28;20049;-74
2024/01/31 04:51:48;;;;;;;6.47;5.82;;;4.90;99.90;;;;;;4976518;28;20763;-75
2024/01/31 04:54:16;;;;;;;5.82;5.22;;;4.90;99.90;;;;;;4989113;28;20046;-74
2024/01/31 04:56:43;;;;;;;6.80;5.60;;;5.00;99.90;;;;;;4969062;28;20564;-75
2024/01/31 04:59:10;;;;;;;9.13;6.80;;;5.00;99.90;;;;;;4988440;28;20050;-75
2024/01/31 05:01:37;;;;;;;7.93;6.18;;;5.00;99.90;;;;;;4986674;28;20053;-75
2024/01/31 05:04:04;;;;;;;8.70;6.00;;;4.90;99.90;;;;;;4989331;28;20359;-76
2024/01/31 05:06:31;;;;;;;7.03;6.30;;;4.90;99.90;;;;;;4984058;28;20038;-74
2024/01/31 05:08:58;;;;;;;10.00;6.72;;;4.90;99.90;;;;;;4952213;28;20120;-76
2024/01/31 05:11:25;;;;;;;10.20;6.80;;;4.80;99.90;;;;;;4953726;28;20050;-76
2024/01/31 05:13:51;;;;;;;7.57;6.18;;;4.80;99.90;;;;;;4971875;28;20057;-74
2024/01/31 05:16:18;;;;;;;11.80;6.18;;;4.80;99.90;;;;;;4967696;28;20054;-76
2024/01/31 05:18:45;;;;;;;11.50;6.00;;;4.80;99.90;;;;;;4987130;28;20650;-74
2024/01/31 05:21:12;;;;;;;8.57;6.32;;;4.80;99.90;;;;;;4957512;28;20110;-75
2024/01/31 05:23:39;;;;;;;7.78;6.97;;;4.80;99.90;;;;;;4985335;28;20092;-74
2024/01/31 05:26:08;;;;;;;10.57;6.60;;;4.80;99.90;;;;;;4967929;28;20100;-75
2024/01/31 05:28:39;;;;;;;7.18;5.80;;;4.80;99.90;;;;;;4973398;28;20038;-75
2024/01/31 05:31:06;;;;;;;8.90;5.78;;;4.80;99.90;;;;;;4970367;28;20132;-75
2024/01/31 05:33:32;;;;;;;8.48;5.90;;;4.80;99.90;;;;;;4989268;28;20128;-76
2024/01/31 05:36:01;;;;;;;7.47;6.20;;;4.80;99.90;;;;;;4969951;28;20537;-74
2024/01/31 05:38:27;;;;;;;9.82;6.75;;;4.90;99.90;;;;;;4981637;28;20768;-74
2024/01/31 05:40:54;;;;;;;10.00;6.28;;;4.80;99.90;;;;;;4969249;28;20129;-75
2024/01/31 05:43:21;;;;;;;7.70;5.40;;;4.80;99.90;;;;;;4968471;28;20054;-75
2024/01/31 05:45:48;;;;;;;9.88;5.97;;;4.80;99.90;;;;;;4948286;28;20057;-74
2024/01/31 05:48:14;;;;;;;10.20;6.32;;;4.80;99.90;;;;;;4973589;28;20108;-75
2024/01/31 05:50:41;;;;;;;9.57;6.85;;;4.70;99.90;;;;;;4967087;28;20050;-75
2024/01/31 05:53:08;;;;;;;10.95;6.20;;;4.80;99.90;;;;;;4972847;28;20049;-75
2024/01/31 05:55:35;;;;;;;11.00;6.82;;;4.80;99.90;;;;;;4971743;28;20048;-75
2024/01/31 05:58:02;;;;;;;10.15;6.43;;;4.80;99.90;;;;;;4976297;28;20137;-75
2024/01/31 06:00:29;;;;;;;17.50;7.40;;;4.80;99.90;;;;;;4965267;28;20065;-75
2024/01/31 06:02:56;;;;;;;12.48;7.88;;;4.90;99.90;;;;;;4969623;28;20069;-74
2024/01/31 06:05:27;;;;;;;8.40;7.28;;;4.90;99.90;;;;;;4950046;28;20546;-75
2024/01/31 06:07:55;;;;;;;9.55;7.53;;;4.80;99.90;;;;;;4968445;28;20045;-75
2024/01/31 06:10:22;;;;;;;10.35;7.30;;;4.80;99.90;;;;;;4946898;28;20461;-74
2024/01/31 06:12:48;;;;;;;11.85;7.20;;;4.70;99.90;;;;;;4985235;28;20056;-75
2024/01/31 06:15:16;;;;;;;9.38;6.85;;;4.80;99.90;;;;;;4965788;28;20409;-75
2024/01/31 06:17:43;;;;;;;10.43;7.63;;;4.80;99.90;;;;;;4971990;28;20045;-74
2024/01/31 06:20:12;;;;;;;12.20;8.05;;;4.70;99.90;;;;;;4999923;28;20018;-74
2024/01/31 06:22:39;;;;;;;15.75;7.90;;;4.70;99.90;;;;;;4996840;28;20042;-74
2024/01/31 06:25:06;;;;;;;12.50;8.63;;;4.70;99.90;;;;;;4982319;28;20037;-74
2024/01/31 06:27:35;;;;;;;14.93;8.43;;;4.70;99.90;;;;;;4995846;28;20026;-74
2024/01/31 06:30:03;;;;;;;13.45;7.45;;;4.80;99.90;;;;;;4994405;28;20034;-74
2024/01/31 06:32:32;;;;;;;17.77;9.25;;;4.70;99.90;;;;;;4996196;28;20037;-74
2024/01/31 06:34:59;;;;;;;13.13;9.52;;;4.80;99.90;;;;;;5003109;28;20033;-75
2024/01/31 06:37:27;;;;;;;13.63;9.70;;;4.80;99.90;;;;;;4961864;28;20050;-75
2024/01/31 06:39:54;;;;;;;16.60;9.60;;;4.90;99.90;;;;;;4968594;28;20058;-75
2024/01/31 06:42:21;;;;;;;12.45;10.10;;;4.90;99.90;;;;;;4943485;28;20038;-76
2024/01/31 06:44:50;;;;;;;14.90;9.88;;;4.90;99.90;;;;;;4951817;28;20054;-77
2024/01/31 06:47:17;;;;;;;16.75;11.45;;;5.00;99.90;;;;;;4985269;28;20045;-76
2024/01/31 06:49:43;;;;;;;21.38;11.65;;;4.90;99.90;;;;;;4983360;28;20064;-75
2024/01/31 06:52:10;;;;;;;13.18;9.70;;;4.90;99.90;;;;;;4965708;28;20060;-76
2024/01/31 06:54:37;;;;;;;14.07;9.05;;;4.80;99.90;;;;;;4968078;28;20050;-73
2024/01/31 06:57:04;;;;;;;12.98;10.15;;;4.80;99.90;;;;;;4964697;28;20430;-74
2024/01/31 06:59:31;;;;;;;12.38;9.90;;;4.70;99.90;;;;;;4961388;28;20052;-76
2024/01/31 07:01:58;;;;;;;16.33;9.25;;;4.70;99.90;;;;;;4958282;28;20074;-76
2024/01/31 07:04:24;;;;;;;9.55;8.25;;;4.70;99.90;;;;;;4963491;28;20478;-75
2024/01/31 07:06:51;;;;;;;14.50;8.10;;;4.70;99.90;;;;;;4962163;28;20042;-74
2024/01/31 07:09:19;;;;;;;14.25;9.32;;;4.70;99.90;;;;;;4972127;28;20141;-74
2024/01/31 07:11:45;;;;;;;12.20;10.02;;;4.80;99.90;;;;;;4966139;28;20037;-72
2024/01/31 07:14:12;;;;;;;17.30;9.35;;;4.80;99.90;;;;;;4983826;28;20057;-72
2024/01/31 07:16:39;;;;;;;12.80;9.68;;;4.80;99.90;;;;;;4978363;28;20047;-74
2024/01/31 07:19:06;;;;;;;19.05;10.05;;;4.70;99.90;;;;;;4984561;28;20052;-74
2024/01/31 07:21:33;;;;;;;13.27;10.85;;;4.80;99.90;;;;;;4970109;28;20037;-72
2024/01/31 07:24:00;;;;;;;17.05;11.27;;;4.70;99.90;;;;;;4980315;28;20593;-73
2024/01/31 07:26:41;;;;;;;16.73;12.07;;;4.70;99.90;;;;;;4969149;28;20046;-73
2024/01/31 07:29:10;;;;;;;15.38;10.65;;;4.70;99.90;;;;;;4971778;28;20422;-72
2024/01/31 07:31:36;;;;;;;17.30;11.70;;;4.70;99.90;;;;;;4967947;28;20046;-74
2024/01/31 07:34:03;;;;;;;18.13;11.98;;;4.60;99.90;;;;;;4950844;28;21643;-74
2024/01/31 07:36:30;;;;;;;19.45;12.13;;;4.70;99.90;;;;;;4968790;28;20031;-74
2024/01/31 07:38:57;;;;;;;15.95;10.52;;;4.60;99.90;;;;;;4968124;28;20181;-72
2024/01/31 07:41:24;;;;;;;18.88;10.98;;;4.70;99.90;;;;;;4985463;28;20081;-74
2024/01/31 07:43:50;;;;;;;14.55;10.40;;;4.70;99.90;;;;;;4976799;28;20058;-74
2024/01/31 07:46:17;;;;;;;10.30;8.57;;;4.70;99.90;;;;;;4969408;28;20074;-74
2024/01/31 07:48:44;;;;;;;12.90;8.85;;;4.70;99.90;;;;;;4949592;28;20052;-71
2024/01/31 07:51:11;;;;;;;12.15;8.90;;;4.70;99.90;;;;;;4984001;28;20048;-72
2024/01/31 07:53:38;;;;;;;11.35;8.70;;;4.80;99.90;;;;;;4963565;28;20058;-72
2024/01/31 07:56:05;;;;;;;14.07;9.00;;;4.80;99.90;;;;;;4970530;28;20046;-72
2024/01/31 07:58:32;;;;;;;11.98;8.60;;;4.80;99.90;;;;;;4974159;28;20124;-72
2024/01/31 08:00:59;;;;;;;17.25;9.50;;;4.80;99.90;;;;;;4955486;28;20046;-72
2024/01/31 08:03:30;;;;;;;14.55;9.73;;;4.70;99.90;;;;;;4978412;28;20605;-83
2024/01/31 08:06:09;;;;;;;16.23;11.02;;;4.80;99.90;;;;;;4961166;28;20046;-79
2024/01/31 08:08:37;;;;;;;17.92;11.65;;;4.80;99.90;;;;;;4986075;28;20092;-78
2024/01/31 08:11:04;;;;;;;14.95;12.00;;;4.80;99.90;;;;;;4975662;28;20170;-79
2024/01/31 08:13:32;;;;;;;16.20;12.68;;;4.90;99.90;;;;;;4990834;28;20101;-78
2024/01/31 08:15:59;;;;;;;15.93;12.25;;;4.90;99.90;;;;;;4982095;28;20050;-77
2024/01/31 08:18:26;;;;;;;17.10;13.77;;;4.90;99.90;;;;;;5006449;28;20022;-77
2024/01/31 08:20:53;;;;;;;14.80;13.05;;;4.90;99.90;;;;;;5026241;28;20065;-77
2024/01/31 08:23:20;;;;;;;14.80;12.52;;;4.90;99.90;;;;;;4999697;28;20048;-80
2024/01/31 08:25:47;;;;;;;14.02;12.25;;;4.90;99.90;;;;;;4991240;28;20049;-78
2024/01/31 08:28:14;;;;;;;16.90;12.93;;;4.80;99.90;;;;;;4976939;28;20046;-79
2024/01/31 08:30:41;;;;;;;18.10;14.00;;;4.90;99.90;;;;;;4971694;28;20060;-80
2024/01/31 08:33:07;;;;;;;16.60;13.85;;;4.80;99.90;;;;;;4955944;28;20061;-78
2024/01/31 08:35:35;;;;;;;17.80;13.20;;;4.90;99.90;;;;;;4992527;28;20064;-80
2024/01/31 08:38:01;;;;;;;17.40;13.98;;;5.00;99.90;;;;;;4985465;28;20100;-78
2024/01/31 08:40:28;;;;;;;15.63;13.98;;;5.00;99.90;;;;;;4957292;28;20855;-80
2024/01/31 08:42:58;;;;;;;15.65;13.73;;;5.00;99.90;;;;;;4974877;28;20037;-79
2024/01/31 08:45:26;;;;;;;16.38;14.70;;;4.90;99.90;;;;;;4960111;28;20473;-78
2024/01/31 08:47:52;;;;;;;16.23;13.75;;;4.90;99.90;;;;;;4992851;28;20058;-77
2024/01/31 08:50:19;;;;;;;16.85;14.60;;;5.00;99.90;;;;;;4976390;28;20108;-80
2024/01/31 08:52:46;;;;;;;20.30;14.77;;;5.00;99.90;;;;;;4999845;28;20062;-79
2024/01/31 08:55:13;;;;;;;17.83;14.80;;;5.10;99.90;;;;;;4988417;28;20054;-78
2024/01/31 08:57:40;;;;;;;18.85;14.30;;;5.20;99.90;;;;;;4983538;28;20641;-78
2024/01/31 09:00:07;;;;;;;20.10;14.18;;;5.10;99.90;;;;;;4981210;28;20054;-79
2024/01/31 09:02:34;;;;;;;19.38;13.15;;;5.00;99.90;;;;;;4994854;28;20113;-80
2024/01/31 09:05:02;;;;;;;18.48;13.55;;;5.00;99.90;;;;;;4978048;28;20069;-78
2024/01/31 09:07:29;;;;;;;16.77;15.00;;;5.00;99.90;;;;;;4974789;28;20038;-80
2024/01/31 09:09:55;;;;;;;19.13;14.82;;;5.10;99.90;;;;;;4988441;28;20048;-78
2024/01/31 09:12:22;;;;;;;16.75;14.93;;;5.10;99.90;;;;;;4994040;28;20038;-79
2024/01/31 09:14:49;;;;;;;19.33;14.57;;;5.10;99.90;;;;;;4988429;28;20077;-79
2024/01/31 09:17:15;;;;;;;17.50;15.63;;;5.10;99.90;;;;;;4954681;28;20041;-80
2024/01/31 09:19:42;;;;;;;17.02;15.32;;;5.20;99.90;;;;;;4972462;28;20136;-80
2024/01/31 09:22:13;;;;;;;17.15;15.13;;;5.20;99.90;;;;;;4991488;28;20073;-80
2024/01/31 09:24:40;;;;;;;17.35;15.40;;;5.10;99.90;;;;;;4970449;28;20110;-79
2024/01/31 09:27:07;;;;;;;17.13;15.52;;;5.10;99.90;;;;;;4991395;28;20049;-80
2024/01/31 09:29:34;;;;;;;17.90;15.93;;;5.00;99.90;;;;;;4977386;28;20242;-80
2024/01/31 09:32:02;;;;;;;18.10;16.20;;;5.00;99.90;;;;;;4969938;28;20065;-80
2024/01/31 09:34:30;;;;;;;17.27;15.55;;;5.00;99.90;;;;;;4974634;28;20527;-80
2024/01/31 09:36:56;;;;;;;16.95;15.30;;;5.10;99.90;;;;;;4972407;28;20592;-78
2024/01/31 09:39:24;;;;;;;18.25;16.50;;;5.10;99.90;;;;;;4977048;28;20038;-78
2024/01/31 09:41:51;;;;;;;20.70;18.00;;;5.10;99.90;;;;;;4990772;28;20045;-79
2024/01/31 09:44:18;;;;;;;19.05;17.02;;;5.10;99.90;;;;;;4974020;28;20038;-78
2024/01/31 09:46:49;;;;;;;16.77;15.15;;;5.10;99.90;;;;;;4957112;28;20065;-80
2024/01/31 09:49:16;;;;;;;18.40;16.33;;;5.20;99.90;;;;;;4974133;28;20246;-80
2024/01/31 09:51:43;;;;;;;18.30;16.38;;;5.20;99.90;;;;;;4972748;28;20467;-78
2024/01/31 09:54:10;;;;;;;18.20;16.25;;;5.20;99.90;;;;;;4978184;28;20148;-80
2024/01/31 09:56:37;;;;;;;21.40;17.42;;;5.20;99.90;;;;;;4972646;28;20037;-77
2024/01/31 09:59:05;;;;;;;22.75;16.70;;;5.20;99.90;;;;;;4987593;28;20045;-78
2024/01/31 10:01:31;;;;;;;20.70;17.90;;;5.20;99.90;;;;;;4957778;28;20038;-80
2024/01/31 10:03:59;;;;;;;21.50;19.33;;;5.10;99.90;;;;;;4954914;28;20048;-78
2024/01/31 10:06:27;;;;;;;19.95;16.35;;;5.10;99.90;;;;;;4954271;28;20655;-80
2024/01/31 10:08:59;;;;;;;19.83;17.48;;;5.00;99.90;;;;;;4988864;28;20049;-79
2024/01/31 10:11:29;;;;;;;19.23;17.23;;;5.00;99.90;;;;;;4975036;28;20051;-80
2024/01/31 10:13:56;;;;;;;21.00;17.55;;;5.00;99.90;;;;;;4973693;28;20220;-78
2024/01/31 10:16:24;;;;;;;22.25;17.00;;;5.10;99.90;;;;;;4966252;28;20050;-80
2024/01/31 10:18:51;;;;;;;25.42;16.98;;;5.00;99.90;;;;;;4982944;28;20264;-80
2024/01/31 10:21:21;;;;;;;18.50;16.63;;;5.10;99.90;;;;;;4966809;28;20061;-80
2024/01/31 10:23:56;;;;;;;21.40;17.15;;;5.10;99.90;;;;;;4989582;28;20109;-80
2024/01/31 10:26:25;;;;;;;23.73;18.35;;;5.10;99.90;;;;;;4959667;28;20038;-79
2024/01/31 10:28:52;;;;;;;18.40;15.88;;;5.10;99.90;;;;;;4974703;28;20420;-81
2024/01/31 10:31:34;;;;;;;17.85;15.98;;;5.00;99.90;;;;;;4973451;28;20077;-80
2024/01/31 10:34:02;;;;;;;19.15;17.15;;;5.00;99.90;;;;;;4970793;28;20093;-81
2024/01/31 10:36:30;;;;;;;19.92;16.92;;;5.10;99.90;;;;;;4946330;28;20546;-80
2024/01/31 10:39:20;;;;;;;20.38;18.15;;;5.20;99.90;;;;;;4967782;28;20038;-79
2024/01/31 10:41:49;;;;;;;20.40;16.48;;;5.20;99.90;;;;;;4958736;28;20134;-80
2024/01/31 10:44:16;;;;;;;18.52;16.63;;;5.20;99.90;;;;;;4986764;28;20049;-80
2024/01/31 10:46:45;;;;;;;18.42;16.55;;;5.20;99.90;;;;;;4983731;28;20439;-80
2024/01/31 10:49:16;;;;;;;19.40;17.52;;;5.30;99.90;;;;;;4988454;28;20097;-80
2024/01/31 10:51:48;;;;;;;19.92;16.95;;;5.50;99.90;;;;;;4978440;28;20049;-78
2024/01/31 10:54:17;;;;;;;19.02;17.35;;;5.60;99.90;;;;;;4964599;28;20137;-81
2024/01/31 10:56:45;;;;;;;19.48;17.70;;;5.60;99.90;;;;;;4992069;28;20049;-81
2024/01/31 10:59:12;;;;;;;19.80;17.73;;;5.70;99.90;;;;;;4955140;28;20164;-80
2024/01/31 11:01:50;;;;;;;17.42;15.73;;;5.60;99.90;;;;;;4974728;28;20049;-79
2024/01/31 11:04:21;;;;;;;23.85;20.67;;;5.60;99.90;;;;;;4951873;28;20063;-80
2024/01/31 11:06:50;;;;;;;23.10;20.80;;;5.60;99.90;;;;;;4970772;28;20042;-81
2024/01/31 11:09:24;;;;;;;21.90;19.83;;;5.60;99.90;;;;;;4959832;28;20834;-80
2024/01/31 11:12:05;;;;;;;22.02;19.70;;;5.60;99.90;;;;;;4990559;28;20113;-80
2024/01/31 11:14:33;;;;;;;19.85;17.77;;;5.60;99.90;;;;;;4971476;28;20054;-81
2024/01/31 11:17:12;;;;;;;19.67;17.75;;;5.60;99.90;;;;;;4977064;28;20053;-81
2024/01/31 11:19:53;;;;;;;22.23;20.08;;;5.60;99.90;;;;;;4990443;28;20038;-82
2024/01/31 11:22:20;;;;;;;22.67;20.48;;;5.60;99.90;;;;;;4955913;28;20042;-80
2024/01/31 11:24:53;;;;;;;23.73;21.27;;;5.50;99.90;;;;;;4952307;28;20053;-79
2024/01/31 11:27:21;;;;;;;26.65;21.50;;;5.40;99.90;;;;;;4972918;28;20034;-79
2024/01/31 11:29:53;;;;;;;25.27;20.42;;;5.50;99.90;;;;;;4975765;28;20042;-82
2024/01/31 11:32:21;;;;;;;25.55;21.00;;;5.50;99.90;;;;;;4985230;28;20038;-81
2024/01/31 11:34:59;;;;;;;22.25;20.05;;;5.40;99.90;;;;;;4970416;28;20070;-85
2024/01/31 11:37:28;;;;;;;27.63;20.55;;;5.50;99.90;;;;;;4954103;28;20093;-81
2024/01/31 11:39:55;;;;;;;28.00;22.10;;;5.40;99.90;;;;;;4995749;28;20147;-80
2024/01/31 11:42:22;;;;;;;24.90;21.10;;;5.40;99.90;;;;;;4991021;28;21621;-82
2024/01/31 11:44:49;;;;;;;23.00;20.60;;;5.50;99.90;;;;;;4974935;28;20057;-81
2024/01/31 11:47:16;;;;;;;30.92;23.55;;;5.50;99.90;;;;;;4974402;28;20038;-81
2024/01/31 11:49:43;;;;;;;27.30;24.75;;;5.50;99.90;;;;;;4977259;28;20052;-80
2024/01/31 11:52:10;;;;;;;25.63;23.13;;;5.50;99.90;;;;;;4988350;28;20060;-81
2024/01/31 11:54:36;;;;;;;29.67;24.98;;;5.70;99.90;;;;;;4974331;28;20041;-80
2024/01/31 11:57:04;;;;;;;26.25;23.73;;;5.70;99.90;;;;;;4972694;28;20041;-81
2024/01/31 11:59:31;;;;;;;25.40;22.85;;;5.80;99.90;;;;;;4961230;28;20042;-80
2024/01/31 12:01:58;;;;;;;25.50;23.02;;;5.70;99.90;;;;;;4959097;28;20149;-79
2024/01/31 12:04:25;;;;;;;25.05;21.92;;;5.60;99.90;;;;;;4986430;28;21402;-80
2024/01/31 12:07:03;;;;;;;29.48;22.98;;;5.50;99.90;;;;;;4989005;28;20042;-80
2024/01/31 12:09:34;;;;;;;25.35;22.75;;;5.40;99.90;;;;;;4977434;28;20045;-79
2024/01/31 12:12:02;;;;;;;23.58;20.70;;;5.50;99.90;;;;;;4976247;28;20042;-80
2024/01/31 12:14:29;;;;;;;23.45;20.80;;;5.60;99.90;;;;;;4974408;28;20057;-80
2024/01/31 12:16:56;;;;;;;26.17;21.88;;;5.60;99.90;;;;;;4988648;28;20052;-79
2024/01/31 12:19:24;;;;;;;24.65;22.05;;;5.50;99.90;;;;;;4961706;28;20049;-79
2024/01/31 12:21:52;;;;;;;24.42;22.08;;;5.40;99.90;;;;;;4959923;28;20050;-79
2024/01/31 12:24:19;;;;;;;26.02;23.42;;;5.40;99.90;;;;;;4992904;28;20058;-79
2024/01/31 12:26:46;;;;;;;26.15;23.52;;;5.50;99.90;;;;;;4975880;28;20041;-79
2024/01/31 12:29:12;;;;;;;28.25;25.15;;;5.60;99.90;;;;;;4972207;28;20076;-81
2024/01/31 12:31:39;;;;;;;30.23;26.10;;;5.60;99.90;;;;;;4963540;28;20617;-79
2024/01/31 12:34:06;;;;;;;28.02;25.42;;;5.60;99.90;;;;;;4956375;28;20041;-80
2024/01/31 12:36:33;;;;;;;29.05;25.42;;;5.60;99.90;;;;;;4996657;28;20038;-79
2024/01/31 12:39:00;;;;;;;29.85;27.10;;;5.60;99.90;;;;;;4972584;28;20061;-80
2024/01/31 12:41:28;;;;;;;27.15;24.65;;;5.70;99.90;;;;;;4963141;28;20107;-79
2024/01/31 12:43:55;;;;;;;27.27;24.88;;;5.70;99.90;;;;;;4950410;28;20197;-78
2024/01/31 12:46:24;;;;;;;29.50;26.77;;;5.70;99.90;;;;;;4976771;28;20775;-79